Time;durP1;ratioP1;P1;durP2;ratioP2;P2;SDS_P1;SDS_P2;PMS_P1;PMS_P2;Temp;Humidity;BMP_temperature;BMP_pressure;BME280_temperature;BME280_humidity;BME280_pressure;Samples;Min_cycle;Max_cycle;Signal;HPM_P1;HPM_P2
2023/01/30 00:01:24;;;;;;;1.27;0.40;;;17.90;48.30;;;;;;6105607;23;20558;-80
2023/01/30 00:03:50;;;;;;;0.32;0.28;;;17.80;48.30;;;;;;6105915;23;20139;-81
2023/01/30 00:06:15;;;;;;;0.82;0.40;;;17.80;48.40;;;;;;6155732;23;20140;-80
2023/01/30 00:08:41;;;;;;;1.02;0.30;;;17.90;48.40;;;;;;6130121;23;20139;-80
2023/01/30 00:11:08;;;;;;;1.27;0.40;;;17.80;48.40;;;;;;6156078;23;20151;-80
2023/01/30 00:13:34;;;;;;;0.55;0.45;;;17.80;48.40;;;;;;6130249;23;20218;-80
2023/01/30 00:16:00;;;;;;;0.90;0.60;;;17.80;48.40;;;;;;6155400;23;20503;-81
2023/01/30 00:18:25;;;;;;;0.82;0.40;;;17.80;48.40;;;;;;6131997;23;20150;-81
2023/01/30 00:20:55;;;;;;;0.63;0.30;;;17.80;48.40;;;;;;6157784;23;20139;-80
2023/01/30 00:23:21;;;;;;;1.08;0.50;;;17.80;48.50;;;;;;6132126;23;20140;-81
2023/01/30 00:25:47;;;;;;;0.60;0.40;;;17.80;48.50;;;;;;6157686;23;20198;-81
2023/01/30 00:28:12;;;;;;;0.45;0.40;;;17.80;48.50;;;;;;6157726;23;20169;-79
2023/01/30 00:30:38;;;;;;;0.75;0.40;;;17.80;48.60;;;;;;6157728;23;20579;-81
2023/01/30 00:33:03;;;;;;;0.93;0.40;;;17.80;48.60;;;;;;6107094;23;20527;-81
2023/01/30 00:35:29;;;;;;;0.80;0.50;;;17.70;48.70;;;;;;6107288;23;20178;-80
2023/01/30 00:37:56;;;;;;;1.55;0.50;;;17.70;48.70;;;;;;6157693;23;20214;-81
2023/01/30 00:40:21;;;;;;;1.23;0.30;;;17.70;48.70;;;;;;6157862;23;20140;-81
2023/01/30 00:48:03;;;;;;;1.55;0.38;;;17.70;48.60;;;;;;6157865;23;20158;-80
2023/01/30 00:50:41;;;;;;;0.70;0.40;;;17.70;48.70;;;;;;6131508;23;20611;-81
2023/01/30 00:53:09;;;;;;;0.52;0.30;;;17.80;48.60;;;;;;6157434;23;20142;-81
2023/01/30 00:55:34;;;;;;;1.00;0.40;;;17.70;48.50;;;;;;6157392;23;20163;-79
2023/01/30 00:58:00;;;;;;;0.60;0.40;;;17.70;48.60;;;;;;6157424;23;20136;-80
2023/01/30 01:00:25;;;;;;;1.00;0.40;;;17.70;48.60;;;;;;6157503;23;20589;-80
2023/01/30 01:02:51;;;;;;;0.70;0.32;;;17.70;48.60;;;;;;6157359;23;20443;-80
2023/01/30 01:05:17;;;;;;;0.60;0.30;;;17.70;48.60;;;;;;6157404;23;20207;-81
2023/01/30 01:07:42;;;;;;;0.30;0.30;;;17.70;48.70;;;;;;6157671;23;20508;-81
2023/01/30 01:10:15;;;;;;;0.52;0.30;;;17.70;48.70;;;;;;6131760;23;20634;-81
2023/01/30 01:12:43;;;;;;;0.75;0.35;;;17.70;48.70;;;;;;6157315;23;20190;-80
2023/01/30 01:15:10;;;;;;;0.30;0.20;;;17.60;48.70;;;;;;6157203;23;20171;-79
2023/01/30 01:17:36;;;;;;;1.35;0.35;;;17.60;48.70;;;;;;6131686;23;20571;-81
2023/01/30 01:20:03;;;;;;;0.38;0.30;;;17.60;48.70;;;;;;6131723;23;20147;-81
2023/01/30 01:22:29;;;;;;;0.50;0.43;;;17.70;48.70;;;;;;6131385;23;20158;-80
2023/01/30 01:24:54;;;;;;;0.65;0.30;;;17.60;48.80;;;;;;6107018;23;20155;-79
2023/01/30 01:27:20;;;;;;;0.68;0.40;;;17.60;48.80;;;;;;6157070;23;20143;-80
2023/01/30 01:29:46;;;;;;;1.15;0.40;;;17.70;48.80;;;;;;6156598;23;20499;-81
2023/01/30 01:32:11;;;;;;;0.20;0.20;;;17.70;48.70;;;;;;6131156;23;20155;-81
2023/01/30 01:34:37;;;;;;;1.30;0.30;;;17.60;48.70;;;;;;6157351;23;20577;-79
2023/01/30 01:37:02;;;;;;;0.73;0.40;;;17.70;48.80;;;;;;6131064;23;20486;-81
2023/01/30 01:41:00;;;;;;;0.60;0.30;;;17.60;48.70;;;;;;6157128;23;20132;-81
2023/01/30 01:42:14;;;;;;;1.52;0.40;;;17.60;48.80;;;;;;6156620;23;20156;-80
2023/01/30 01:45:14;;;;;;;0.57;0.35;;;17.60;48.80;;;;;;6157145;23;20154;-80
2023/01/30 01:47:59;;;;;;;0.43;0.30;;;17.70;48.80;;;;;;6130951;23;20140;-80
2023/01/30 01:50:29;;;;;;;1.95;0.63;;;17.60;48.80;;;;;;6157082;23;20586;-80
2023/01/30 01:52:55;;;;;;;1.13;0.40;;;17.60;48.80;;;;;;6107192;23;20140;-80
2023/01/30 01:55:21;;;;;;;0.95;0.47;;;17.60;48.80;;;;;;6131243;23;20234;-81
2023/01/30 01:57:50;;;;;;;0.93;0.43;;;17.60;48.90;;;;;;6106783;23;20541;-81
2023/01/30 02:00:17;;;;;;;0.40;0.40;;;17.60;48.90;;;;;;6106727;23;20470;-81
2023/01/30 02:02:46;;;;;;;1.98;0.50;;;17.60;49.00;;;;;;6106339;23;20202;-81
2023/01/30 02:05:13;;;;;;;0.95;0.38;;;17.60;48.90;;;;;;6131173;23;20147;-81
2023/01/30 02:07:45;;;;;;;0.68;0.50;;;17.60;48.90;;;;;;6157115;23;20631;-79
2023/01/30 02:10:15;;;;;;;0.93;0.50;;;17.60;48.90;;;;;;6130681;23;20140;-80
2023/01/30 02:12:41;;;;;;;0.93;0.40;;;17.60;49.00;;;;;;6107032;23;20195;-81
2023/01/30 02:15:07;;;;;;;0.57;0.30;;;17.60;48.90;;;;;;6130308;23;20532;-81
2023/01/30 02:17:32;;;;;;;0.95;0.30;;;17.50;48.90;;;;;;6130571;23;20140;-80
2023/01/30 02:20:05;;;;;;;0.77;0.40;;;17.60;48.90;;;;;;6130742;23;20586;-80
2023/01/30 02:23:07;;;;;;;0.40;0.22;;;17.60;48.90;;;;;;6156640;23;20215;-80
2023/01/30 02:26:06;;;;;;;0.75;0.30;;;17.60;48.90;;;;;;6134901;23;20135;-80
2023/01/30 02:29:06;;;;;;;0.60;0.32;;;17.60;48.90;;;;;;6156537;23;20194;-80
2023/01/30 02:31:49;;;;;;;0.40;0.40;;;17.60;48.90;;;;;;6137961;23;20223;-79
2023/01/30 02:34:45;;;;;;;0.47;0.30;;;17.60;48.90;;;;;;6105849;23;20183;-80
2023/01/30 02:37:30;;;;;;;0.40;0.40;;;17.60;48.90;;;;;;6135031;23;20140;-80
2023/01/30 02:40:20;;;;;;;0.90;0.50;;;17.60;48.90;;;;;;6156606;23;20178;-81
2023/01/30 02:43:16;;;;;;;0.50;0.28;;;17.60;48.90;;;;;;6135094;23;20242;-80
2023/01/30 02:46:16;;;;;;;0.50;0.30;;;17.50;48.90;;;;;;6156616;23;20136;-81
2023/01/30 02:48:56;;;;;;;1.30;0.30;;;17.60;49.00;;;;;;6137953;23;20219;-80
2023/01/30 02:51:26;;;;;;;0.32;0.32;;;17.50;48.90;;;;;;6156804;23;20182;-81
2023/01/30 02:53:52;;;;;;;0.85;0.40;;;17.50;48.90;;;;;;6156290;23;20151;-80
2023/01/30 02:56:18;;;;;;;0.93;0.40;;;17.50;48.90;;;;;;6156405;23;20211;-80
2023/01/30 02:58:48;;;;;;;0.45;0.30;;;17.60;48.90;;;;;;6130643;23;20199;-80
2023/01/30 03:01:46;;;;;;;1.63;0.30;;;17.50;48.90;;;;;;6130030;23;20162;-81
2023/01/30 03:04:46;;;;;;;0.50;0.32;;;17.50;49.00;;;;;;6156229;23;20170;-80
2023/01/30 03:07:33;;;;;;;0.70;0.30;;;17.50;49.00;;;;;;6156218;23;20157;-80
2023/01/30 03:10:06;;;;;;;0.65;0.30;;;17.50;49.00;;;;;;6130479;23;20563;-80
2023/01/30 03:12:40;;;;;;;2.47;0.40;;;17.50;49.00;;;;;;6106739;23;20483;-80
2023/01/30 03:15:21;;;;;;;1.08;0.30;;;17.50;48.90;;;;;;6106103;23;20167;-81
2023/01/30 03:17:47;;;;;;;0.80;0.30;;;17.50;49.00;;;;;;6100695;23;20136;-81
2023/01/30 03:20:13;;;;;;;0.70;0.40;;;17.50;49.00;;;;;;6101063;23;20140;-80
2023/01/30 03:22:39;;;;;;;0.30;0.30;;;17.50;49.00;;;;;;6101239;23;20137;-80
2023/01/30 03:25:06;;;;;;;0.25;0.20;;;17.50;49.10;;;;;;6126508;23;20160;-81
2023/01/30 03:27:32;;;;;;;0.85;0.40;;;17.50;49.10;;;;;;6100915;23;20147;-81
2023/01/30 03:29:57;;;;;;;1.48;0.30;;;17.50;49.10;;;;;;6100694;23;20143;-80
2023/01/30 03:32:23;;;;;;;0.55;0.35;;;17.50;49.10;;;;;;6126524;23;20137;-79
2023/01/30 03:34:49;;;;;;;0.40;0.20;;;17.50;49.10;;;;;;6126365;23;20534;-80
2023/01/30 03:37:14;;;;;;;0.30;0.30;;;17.50;49.10;;;;;;6100470;23;20151;-80
2023/01/30 03:39:40;;;;;;;1.10;0.50;;;17.50;49.10;;;;;;6101026;23;20133;-82
2023/01/30 03:42:06;;;;;;;0.77;0.30;;;17.50;49.10;;;;;;6100512;23;20564;-81
2023/01/30 03:44:31;;;;;;;1.83;0.45;;;17.50;49.10;;;;;;6126770;23;20145;-81
2023/01/30 03:46:57;;;;;;;0.30;0.30;;;17.50;49.00;;;;;;6126499;23;20143;-79
2023/01/30 03:49:22;;;;;;;0.47;0.28;;;17.50;49.00;;;;;;6126369;23;20143;-81
2023/01/30 03:51:48;;;;;;;0.70;0.30;;;17.50;49.10;;;;;;6126163;23;20531;-80
2023/01/30 03:54:14;;;;;;;0.25;0.25;;;17.50;49.10;;;;;;6126296;23;20544;-80
2023/01/30 03:56:40;;;;;;;0.63;0.45;;;17.50;49.10;;;;;;6126353;23;20171;-80
2023/01/30 03:59:05;;;;;;;0.68;0.40;;;17.50;49.70;;;;;;6126460;23;20132;-80
2023/01/30 04:01:31;;;;;;;0.52;0.43;;;17.50;49.00;;;;;;6126602;23;20492;-81
2023/01/30 04:03:56;;;;;;;0.45;0.40;;;17.50;49.00;;;;;;6126584;23;20463;-81
2023/01/30 04:06:22;;;;;;;0.38;0.20;;;17.50;49.00;;;;;;6126664;23;20145;-80
2023/01/30 04:08:51;;;;;;;0.30;0.30;;;17.50;49.10;;;;;;6100515;23;20133;-80
2023/01/30 04:11:17;;;;;;;0.22;0.20;;;17.50;49.10;;;;;;6126513;23;20163;-81
2023/01/30 04:13:43;;;;;;;1.00;0.50;;;17.50;49.00;;;;;;6126189;23;20498;-80
2023/01/30 04:16:18;;;;;;;0.30;0.30;;;17.50;49.10;;;;;;6136847;23;20627;-80
2023/01/30 04:18:43;;;;;;;0.50;0.30;;;17.40;49.00;;;;;;6105843;23;20143;-80
2023/01/30 04:21:09;;;;;;;1.17;0.30;;;17.50;49.10;;;;;;6129721;23;20663;-81
2023/01/30 04:23:35;;;;;;;1.38;0.30;;;17.50;49.10;;;;;;6081447;23;20155;-79
2023/01/30 04:26:00;;;;;;;0.80;0.50;;;17.50;49.10;;;;;;6155785;23;20214;-79
2023/01/30 04:28:26;;;;;;;0.40;0.30;;;17.40;49.00;;;;;;6155783;23;20575;-81
2023/01/30 04:30:52;;;;;;;0.60;0.35;;;17.50;49.10;;;;;;6155777;23;20622;-81
2023/01/30 04:33:17;;;;;;;0.57;0.30;;;17.50;49.10;;;;;;6155533;23;20579;-80
2023/01/30 04:35:57;;;;;;;0.82;0.45;;;17.50;49.10;;;;;;6155521;23;20174;-80
2023/01/30 04:38:23;;;;;;;0.57;0.38;;;17.50;49.10;;;;;;6129858;23;20143;-80
2023/01/30 04:40:50;;;;;;;0.70;0.40;;;17.40;49.00;;;;;;6105644;23;20140;-81
2023/01/30 04:43:17;;;;;;;0.77;0.50;;;17.50;49.00;;;;;;6129915;23;20202;-80
2023/01/30 04:45:43;;;;;;;0.82;0.30;;;17.40;48.90;;;;;;6105532;23;20152;-79
2023/01/30 04:48:09;;;;;;;0.85;0.30;;;17.40;49.00;;;;;;6129821;23;20531;-81
2023/01/30 04:50:34;;;;;;;1.13;0.38;;;17.40;49.00;;;;;;6155513;23;20147;-80
2023/01/30 04:53:00;;;;;;;0.68;0.40;;;17.40;49.00;;;;;;6155730;23;20211;-80
2023/01/30 04:55:26;;;;;;;0.88;0.40;;;17.50;49.10;;;;;;6155758;23;20556;-80
2023/01/30 04:57:51;;;;;;;0.80;0.50;;;17.40;49.10;;;;;;6155654;23;20143;-80
2023/01/30 05:00:17;;;;;;;0.32;0.30;;;17.40;49.00;;;;;;6155492;23;20132;-80
2023/01/30 05:02:43;;;;;;;0.60;0.30;;;17.50;49.10;;;;;;6155934;23;20215;-81
2023/01/30 05:05:08;;;;;;;0.80;0.40;;;17.50;49.10;;;;;;6157468;23;20511;-80
2023/01/30 05:07:34;;;;;;;0.95;0.38;;;17.50;49.10;;;;;;6131436;23;20139;-80
2023/01/30 05:10:01;;;;;;;0.55;0.32;;;17.50;49.10;;;;;;6157279;23;20471;-80
2023/01/30 05:12:27;;;;;;;0.52;0.30;;;17.50;49.10;;;;;;6157398;23;20131;-81
2023/01/30 05:14:53;;;;;;;1.52;0.30;;;17.50;49.10;;;;;;6131184;23;20190;-81
2023/01/30 05:17:19;;;;;;;0.65;0.30;;;17.40;49.00;;;;;;6131271;23;20510;-80
2023/01/30 05:19:44;;;;;;;0.63;0.30;;;17.40;48.90;;;;;;6131318;23;20154;-80
2023/01/30 05:22:11;;;;;;;0.47;0.40;;;17.40;48.90;;;;;;6131299;23;20136;-81
2023/01/30 05:24:36;;;;;;;0.73;0.40;;;17.40;48.90;;;;;;6157275;23;20163;-80
2023/01/30 05:27:02;;;;;;;0.52;0.43;;;17.40;48.90;;;;;;6106954;23;20142;-81
2023/01/30 05:29:28;;;;;;;0.70;0.38;;;17.40;49.00;;;;;;6157247;23;20515;-81
2023/01/30 05:31:53;;;;;;;0.25;0.20;;;17.40;49.00;;;;;;6157189;23;20519;-80
2023/01/30 05:34:19;;;;;;;0.20;0.20;;;17.40;49.00;;;;;;6156881;23;20618;-80
2023/01/30 05:36:45;;;;;;;0.32;0.32;;;17.50;49.10;;;;;;6157209;23;20261;-80
2023/01/30 05:39:10;;;;;;;0.60;0.30;;;17.40;49.00;;;;;;6157119;23;20135;-80
2023/01/30 05:41:36;;;;;;;0.20;0.20;;;17.50;49.00;;;;;;6156999;23;20135;-80
2023/01/30 05:44:01;;;;;;;1.05;0.45;;;17.50;48.90;;;;;;6157084;23;20210;-80
2023/01/30 05:46:27;;;;;;;0.88;0.40;;;17.50;49.10;;;;;;6131624;23;20591;-80
2023/01/30 05:48:53;;;;;;;0.55;0.35;;;17.40;48.90;;;;;;6157054;23;20143;-80
2023/01/30 05:51:21;;;;;;;0.50;0.30;;;17.40;48.90;;;;;;6156943;23;20448;-79
2023/01/30 05:53:46;;;;;;;0.43;0.40;;;17.40;48.90;;;;;;6107048;23;20168;-80
2023/01/30 05:56:12;;;;;;;0.40;0.30;;;17.50;49.00;;;;;;6157013;23;20579;-80
2023/01/30 05:58:38;;;;;;;0.50;0.40;;;17.40;49.00;;;;;;6130889;23;20167;-80
2023/01/30 06:01:05;;;;;;;0.35;0.28;;;17.40;49.10;;;;;;6131196;23;20222;-80
2023/01/30 06:03:31;;;;;;;0.45;0.35;;;17.40;49.00;;;;;;6106734;23;20214;-81
2023/01/30 06:05:57;;;;;;;0.45;0.38;;;17.40;49.10;;;;;;6082980;23;20182;-80
2023/01/30 06:08:22;;;;;;;0.65;0.40;;;17.40;48.90;;;;;;6131233;23;20567;-81
2023/01/30 06:10:48;;;;;;;0.35;0.30;;;17.50;49.10;;;;;;6156718;23;20147;-81
2023/01/30 06:13:14;;;;;;;1.27;0.30;;;17.40;49.00;;;;;;6130878;23;20147;-81
2023/01/30 06:15:39;;;;;;;0.20;0.20;;;17.40;49.00;;;;;;6156210;23;20649;-80
2023/01/30 06:18:05;;;;;;;0.50;0.30;;;17.50;49.10;;;;;;6156596;23;20504;-80
2023/01/30 06:20:31;;;;;;;1.38;0.35;;;17.50;49.00;;;;;;6156415;23;20144;-80
2023/01/30 06:22:56;;;;;;;0.85;0.40;;;17.50;49.00;;;;;;6156700;23;20555;-81
2023/01/30 06:25:22;;;;;;;0.80;0.57;;;17.40;48.90;;;;;;6156560;23;20143;-81
2023/01/30 06:27:47;;;;;;;0.50;0.38;;;17.50;49.00;;;;;;6130713;23;20553;-81
2023/01/30 06:30:13;;;;;;;0.40;0.40;;;17.50;49.10;;;;;;6131207;23;20567;-81
2023/01/30 06:32:40;;;;;;;0.50;0.35;;;17.50;49.00;;;;;;6130191;23;20440;-80
2023/01/30 06:35:06;;;;;;;0.70;0.40;;;17.50;49.00;;;;;;6104554;23;20466;-80
2023/01/30 06:37:32;;;;;;;0.65;0.40;;;17.50;48.90;;;;;;6155675;23;20585;-80
2023/01/30 06:39:57;;;;;;;0.52;0.40;;;17.50;48.90;;;;;;6130229;23;20132;-80
2023/01/30 06:42:23;;;;;;;0.40;0.35;;;17.50;49.00;;;;;;6130364;23;20577;-81
2023/01/30 06:44:48;;;;;;;0.75;0.40;;;17.50;48.80;;;;;;6156645;23;20630;-80
2023/01/30 06:47:14;;;;;;;0.52;0.20;;;17.50;48.70;;;;;;6156762;23;20143;-80
2023/01/30 06:49:40;;;;;;;0.50;0.30;;;17.50;48.80;;;;;;6156249;23;20572;-80
2023/01/30 06:52:05;;;;;;;4.13;0.52;;;17.40;48.60;;;;;;6130340;23;20140;-80
2023/01/30 06:54:31;;;;;;;3.90;0.70;;;17.50;48.70;;;;;;6130726;23;20621;-80
2023/01/30 06:56:57;;;;;;;1.55;0.40;;;17.50;48.90;;;;;;6130586;23;20468;-82
2023/01/30 06:59:22;;;;;;;1.42;0.38;;;17.50;48.60;;;;;;6156349;23;20155;-80
2023/01/30 07:01:49;;;;;;;3.90;0.50;;;17.60;48.80;;;;;;6156444;23;20166;-81
2023/01/30 07:04:14;;;;;;;2.10;0.50;;;17.50;48.90;;;;;;6156106;23;20140;-80
2023/01/30 07:06:40;;;;;;;4.82;0.60;;;17.60;48.90;;;;;;6131246;23;20622;-80
2023/01/30 07:09:06;;;;;;;7.60;0.70;;;17.60;49.00;;;;;;6131180;23;20634;-80
2023/01/30 07:11:31;;;;;;;4.13;1.00;;;17.50;49.10;;;;;;6131383;23;20143;-80
2023/01/30 07:13:57;;;;;;;5.20;0.70;;;17.50;49.00;;;;;;6156992;23;20143;-79
2023/01/30 07:16:27;;;;;;;9.05;0.60;;;17.50;49.00;;;;;;6156224;23;20635;-80
2023/01/30 07:18:56;;;;;;;11.18;0.85;;;17.60;49.10;;;;;;6157702;23;20131;-84
2023/01/30 07:21:22;;;;;;;3.35;0.60;;;17.60;49.10;;;;;;6135222;23;20162;-87
2023/01/30 07:23:47;;;;;;;2.95;0.45;;;17.50;48.90;;;;;;6086059;23;20136;-82
2023/01/30 07:26:13;;;;;;;1.75;0.70;;;17.60;49.00;;;;;;6132363;23;20136;-84
2023/01/30 07:28:39;;;;;;;3.42;0.40;;;17.60;49.20;;;;;;6107947;23;20147;-83
2023/01/30 07:31:04;;;;;;;5.05;0.82;;;17.60;48.80;;;;;;6132142;23;20440;-83
2023/01/30 07:33:30;;;;;;;3.70;0.57;;;17.70;48.70;;;;;;6132689;23;20168;-81
2023/01/30 07:35:58;;;;;;;1.00;0.40;;;17.70;48.30;;;;;;6131433;23;20182;-85
2023/01/30 07:38:23;;;;;;;4.32;0.57;;;17.80;48.30;;;;;;6157544;23;20128;-82
2023/01/30 07:40:49;;;;;;;3.60;0.50;;;17.80;48.30;;;;;;6106537;23;20143;-83
2023/01/30 07:43:15;;;;;;;1.38;0.52;;;17.90;48.20;;;;;;6130910;23;20136;-84
2023/01/30 07:45:43;;;;;;;2.28;0.65;;;17.90;48.00;;;;;;6156357;23;20441;-82
2023/01/30 07:48:11;;;;;;;3.47;0.63;;;17.90;48.00;;;;;;6107946;23;20140;-84
2023/01/30 07:50:37;;;;;;;5.97;0.65;;;18.00;47.90;;;;;;6108865;23;20144;-83
2023/01/30 07:53:08;;;;;;;4.53;0.55;;;18.00;47.70;;;;;;6078615;23;20160;-83
2023/01/30 08:03:03;;;;;;;;;;;;;;;;;;;;;
2023/01/30 08:09:42;;;;;;;3.03;1.02;;;18.20;47.80;;;;;;5839166;24;20184;-81
2023/01/30 08:12:48;;;;;;;3.53;0.45;;;18.20;47.60;;;;;;5796820;24;20190;-81
2023/01/30 08:15:58;;;;;;;;;;;;;;;;;;;;;
2023/01/30 08:18:34;;;;;;;7.90;0.80;;;18.20;47.80;;;;;;5801601;24;20632;-81
2023/01/30 08:21:13;;;;;;;;;;;;;;;;;;;;;
2023/01/30 08:23:39;;;;;;;4.93;1.05;;;18.20;47.90;;;;;;5754311;24;20242;-81
2023/01/30 08:26:10;;;;;;;3.92;0.57;;;18.20;48.10;;;;;;5784778;24;20166;-81
2023/01/30 08:28:36;;;;;;;8.75;0.70;;;18.20;48.00;;;;;;5842911;24;20169;-82
2023/01/30 08:31:02;;;;;;;5.18;0.85;;;18.20;48.00;;;;;;5842876;24;20178;-80
2023/01/30 08:33:27;;;;;;;5.50;0.63;;;18.20;47.90;;;;;;5864855;24;20174;-80
2023/01/30 08:35:53;;;;;;;3.40;0.40;;;18.20;47.80;;;;;;5888633;24;20259;-79
2023/01/30 08:38:19;;;;;;;6.75;0.70;;;18.30;47.50;;;;;;5930873;24;20156;-81
2023/01/30 08:40:45;;;;;;;7.57;0.50;;;18.30;47.50;;;;;;5931973;24;20159;-81
2023/01/30 08:43:10;;;;;;;7.35;0.80;;;18.30;47.60;;;;;;5931800;24;20193;-80
2023/01/30 08:45:39;;;;;;;3.90;0.55;;;18.30;47.50;;;;;;5973534;24;20163;-81
2023/01/30 08:48:05;;;;;;;4.85;0.70;;;18.40;47.50;;;;;;5965720;23;20491;-81
2023/01/30 08:50:31;;;;;;;3.20;0.80;;;18.40;47.50;;;;;;5964645;23;20147;-81
2023/01/30 08:53:01;;;;;;;5.47;0.80;;;18.30;47.50;;;;;;5996324;23;20157;-81
2023/01/30 08:55:28;;;;;;;5.40;0.93;;;18.40;47.50;;;;;;6056450;23;20591;-81
2023/01/30 08:57:55;;;;;;;5.47;0.75;;;18.40;47.30;;;;;;6078983;23;20154;-80
2023/01/30 09:00:21;;;;;;;5.90;0.70;;;18.40;47.60;;;;;;6054260;23;20152;-80
2023/01/30 09:02:47;;;;;;;3.17;0.60;;;18.40;47.40;;;;;;6102882;23;20164;-81
2023/01/30 09:05:12;;;;;;;3.92;0.50;;;18.40;47.50;;;;;;6102767;23;20227;-82
2023/01/30 09:07:38;;;;;;;3.97;0.63;;;18.40;47.50;;;;;;6078367;23;20199;-82
2023/01/30 09:10:10;;;;;;;6.50;1.05;;;18.40;47.50;;;;;;6102931;23;20150;-82
2023/01/30 09:12:36;;;;;;;7.20;0.65;;;18.40;47.70;;;;;;6104277;23;20155;-82
2023/01/30 09:15:02;;;;;;;3.08;0.60;;;18.40;47.80;;;;;;6056099;23;20663;-83
2023/01/30 09:17:28;;;;;;;11.27;0.70;;;18.40;47.50;;;;;;6079700;23;20155;-84
2023/01/30 09:19:53;;;;;;;5.55;0.52;;;18.50;47.60;;;;;;6124954;23;20187;-83
2023/01/30 09:22:19;;;;;;;5.38;0.80;;;18.40;47.50;;;;;;6132828;23;20564;-82
2023/01/30 09:25:03;;;;;;;;;;;;;;;;;;;;;
2023/01/30 09:27:29;;;;;;;10.82;0.70;;;18.50;47.60;;;;;;6040100;23;20237;-83
2023/01/30 09:29:55;;;;;;;6.55;0.80;;;18.50;47.90;;;;;;5993388;23;20158;-83
2023/01/30 09:32:21;;;;;;;7.57;0.60;;;18.50;47.80;;;;;;5994122;23;20169;-82
2023/01/30 09:34:47;;;;;;;10.75;0.73;;;18.50;47.50;;;;;;6017276;23;20602;-82
2023/01/30 09:37:12;;;;;;;6.30;0.70;;;18.50;47.90;;;;;;5993123;23;20154;-81
2023/01/30 09:39:38;;;;;;;4.95;0.65;;;18.40;48.60;;;;;;5991158;23;20154;-81
2023/01/30 09:42:30;;;;;;;9.80;1.00;;;18.50;47.70;;;;;;6014633;23;20596;-81
2023/01/30 09:45:33;;;;;;;4.18;0.70;;;18.50;47.60;;;;;;6021792;23;20147;-81
2023/01/30 09:48:18;;;;;;;10.43;1.10;;;18.50;47.60;;;;;;5995018;23;20488;-82
2023/01/30 09:51:03;;;;;;;14.60;0.98;;;18.60;47.70;;;;;;6014840;23;20695;-81
2023/01/30 09:53:51;;;;;;;6.30;0.57;;;18.50;47.90;;;;;;6017366;23;20286;-83
2023/01/30 09:56:16;;;;;;;13.95;1.13;;;18.50;47.90;;;;;;5995000;23;20559;-80
2023/01/30 09:58:51;;;;;;;16.27;1.25;;;18.60;47.90;;;;;;6092281;23;20151;-81
2023/01/30 10:01:53;;;;;;;14.82;1.05;;;18.50;48.30;;;;;;6130551;23;20131;-82
2023/01/30 10:04:28;;;;;;;13.45;1.08;;;18.50;48.30;;;;;;6156030;23;20147;-80
2023/01/30 10:07:38;;;;;;;11.65;1.08;;;18.50;48.30;;;;;;6131439;23;20139;-80
2023/01/30 10:10:49;;;;;;;10.63;0.93;;;18.50;48.20;;;;;;6070456;23;20770;-81
2023/01/30 10:13:42;;;;;;;12.93;1.10;;;18.60;48.30;;;;;;6052487;23;20167;-80
2023/01/30 10:16:20;;;;;;;6.93;0.98;;;18.60;48.50;;;;;;6049494;23;20896;-81
2023/01/30 10:19:19;;;;;;;10.98;0.90;;;18.50;48.30;;;;;;6071853;23;20218;-81
2023/01/30 10:22:33;;;;;;;7.85;0.90;;;18.60;48.30;;;;;;6071173;23;20178;-80
2023/01/30 10:25:06;;;;;;;9.90;1.17;;;18.60;48.90;;;;;;6094918;23;20247;-81
2023/01/30 10:27:32;;;;;;;8.80;1.00;;;18.70;48.40;;;;;;6071599;23;20484;-80
2023/01/30 10:30:00;;;;;;;7.80;0.70;;;18.60;48.30;;;;;;6070822;23;20153;-81
2023/01/30 10:32:42;;;;;;;8.27;1.00;;;18.60;48.10;;;;;;6071029;23;20148;-80
2023/01/30 10:35:18;;;;;;;5.68;0.90;;;18.60;48.20;;;;;;6100426;23;20183;-80
2023/01/30 10:37:52;;;;;;;8.23;0.80;;;18.60;48.20;;;;;;6083368;23;20225;-81
2023/01/30 10:40:23;;;;;;;8.98;0.82;;;18.60;48.20;;;;;;6083087;23;20147;-81
2023/01/30 10:42:58;;;;;;;4.00;0.68;;;18.60;48.20;;;;;;6106549;23;20434;-81
2023/01/30 10:45:33;;;;;;;5.72;0.65;;;18.50;48.20;;;;;;6105930;23;20139;-81
2023/01/30 10:48:23;;;;;;;6.50;0.73;;;18.50;48.20;;;;;;6082607;23;20147;-81
2023/01/30 10:50:53;;;;;;;5.55;0.98;;;18.50;48.30;;;;;;6108566;23;20198;-81
2023/01/30 10:53:24;;;;;;;7.88;0.80;;;18.60;48.20;;;;;;6106035;23;20247;-81
2023/01/30 10:55:55;;;;;;;12.73;1.10;;;18.70;48.20;;;;;;6130769;23;20176;-81
2023/01/30 10:58:43;;;;;;;5.22;0.60;;;18.70;48.00;;;;;;6156043;23;20132;-81
2023/01/30 11:01:15;;;;;;;4.93;0.95;;;18.70;48.10;;;;;;6134303;23;20163;-80
2023/01/30 11:04:02;;;;;;;5.15;0.50;;;18.70;47.90;;;;;;6106681;23;20136;-81
2023/01/30 11:06:28;;;;;;;3.58;0.68;;;18.70;47.60;;;;;;6106181;23;20144;-81
2023/01/30 11:08:54;;;;;;;3.05;0.98;;;18.70;47.50;;;;;;6105600;23;20170;-81
2023/01/30 11:11:25;;;;;;;5.72;0.80;;;18.70;47.50;;;;;;6081796;23;20225;-80
2023/01/30 11:13:50;;;;;;;9.43;0.98;;;18.70;47.50;;;;;;6082354;23;20170;-80
2023/01/30 11:16:16;;;;;;;3.25;0.65;;;18.70;47.60;;;;;;6130045;23;20179;-80
2023/01/30 11:18:46;;;;;;;2.53;0.50;;;18.70;47.60;;;;;;6105733;23;20186;-81
2023/01/30 11:21:23;;;;;;;8.25;0.93;;;18.70;47.60;;;;;;6105792;23;20155;-81
2023/01/30 11:23:50;;;;;;;6.32;0.90;;;18.70;47.40;;;;;;6107744;23;20131;-81
2023/01/30 11:26:25;;;;;;;7.65;0.75;;;18.70;47.30;;;;;;6106345;23;20139;-81
2023/01/30 11:28:50;;;;;;;3.50;0.85;;;18.80;47.30;;;;;;6130024;23;20139;-81
2023/01/30 11:31:19;;;;;;;12.20;0.93;;;18.80;47.30;;;;;;6129737;23;20542;-81
2023/01/30 11:33:45;;;;;;;2.60;0.60;;;18.70;47.30;;;;;;6106277;23;20144;-82
2023/01/30 11:36:27;;;;;;;4.70;0.80;;;18.70;47.40;;;;;;6105146;23;20484;-81
2023/01/30 11:38:56;;;;;;;2.08;0.50;;;18.70;47.50;;;;;;6129668;23;20222;-81
2023/01/30 11:41:22;;;;;;;3.45;0.68;;;18.70;47.20;;;;;;6129704;23;20146;-81
2023/01/30 11:43:48;;;;;;;4.00;0.60;;;18.70;47.00;;;;;;6105199;23;20155;-81
2023/01/30 11:46:17;;;;;;;4.75;0.50;;;18.60;47.00;;;;;;6105381;23;20186;-82
2023/01/30 11:48:49;;;;;;;2.35;0.57;;;18.70;46.80;;;;;;6130003;23;20163;-82
2023/01/30 11:51:16;;;;;;;4.63;0.63;;;18.70;46.90;;;;;;6081399;23;20258;-83
2023/01/30 11:53:47;;;;;;;2.97;0.70;;;18.70;46.60;;;;;;6105988;23;20131;-81
2023/01/30 11:56:20;;;;;;;1.15;0.35;;;18.90;46.60;;;;;;6156335;23;20201;-82
2023/01/30 11:58:56;;;;;;;4.13;0.77;;;18.90;46.20;;;;;;6155876;23;20476;-81
2023/01/30 12:01:34;;;;;;;3.97;0.47;;;18.90;46.40;;;;;;6107952;23;20222;-81
2023/01/30 12:03:59;;;;;;;3.05;0.55;;;18.90;46.20;;;;;;6107150;23;20151;-82
2023/01/30 12:06:34;;;;;;;4.50;0.60;;;18.90;46.50;;;;;;6106357;23;20159;-83
2023/01/30 12:09:00;;;;;;;3.80;0.45;;;18.90;46.50;;;;;;6130109;23;20135;-82
2023/01/30 12:11:41;;;;;;;2.67;0.50;;;18.80;46.20;;;;;;6129924;23;20533;-81
2023/01/30 12:14:39;;;;;;;6.35;0.65;;;18.90;45.90;;;;;;6084280;23;20233;-82
2023/01/30 12:17:26;;;;;;;2.55;0.60;;;19.00;46.20;;;;;;6129790;23;20163;-82
2023/01/30 12:20:13;;;;;;;6.03;0.68;;;18.90;46.00;;;;;;6107252;23;20218;-81
2023/01/30 12:23:04;;;;;;;8.57;0.90;;;18.90;46.00;;;;;;6107314;23;20151;-82
2023/01/30 12:25:38;;;;;;;5.22;0.75;;;18.90;46.00;;;;;;6137437;23;20243;-83
2023/01/30 12:28:12;;;;;;;6.07;0.70;;;18.90;45.70;;;;;;6108369;23;20155;-84
2023/01/30 12:30:50;;;;;;;1.20;0.40;;;18.90;45.90;;;;;;6158110;23;20150;-82
2023/01/30 12:33:16;;;;;;;5.25;0.75;;;18.90;45.80;;;;;;6109120;23;20165;-82
2023/01/30 12:35:49;;;;;;;6.22;0.60;;;18.90;45.70;;;;;;6135188;23;20510;-82
2023/01/30 12:38:42;;;;;;;2.03;0.47;;;19.00;45.60;;;;;;6131744;23;20162;-82
2023/01/30 12:41:33;;;;;;;5.95;0.47;;;19.00;45.50;;;;;;6133851;23;20226;-83
2023/01/30 12:44:30;;;;;;;2.53;0.73;;;19.00;45.30;;;;;;6157425;23;20136;-82
2023/01/30 12:47:25;;;;;;;2.13;0.40;;;19.00;45.20;;;;;;6071607;23;20164;-83
2023/01/30 12:50:13;;;;;;;2.95;0.50;;;19.00;45.20;;;;;;6070427;23;20179;-83
2023/01/30 12:52:54;;;;;;;2.83;0.50;;;19.00;45.30;;;;;;6037329;23;20194;-83
2023/01/30 12:55:46;;;;;;;4.85;0.52;;;19.00;45.30;;;;;;6036533;23;20312;-82
2023/01/30 12:58:24;;;;;;;2.00;0.40;;;19.00;44.90;;;;;;6009011;23;20650;-83
2023/01/30 13:01:31;;;;;;;;;;;;;;;;;;;;;
2023/01/30 13:04:22;;;;;;;4.85;0.68;;;18.90;45.30;;;;;;6005743;23;20241;-82
2023/01/30 13:06:56;;;;;;;3.55;0.45;;;18.90;45.40;;;;;;5978137;23;20154;-82
2023/01/30 13:09:47;;;;;;;3.22;0.43;;;18.90;45.30;;;;;;6009744;23;20161;-81
2023/01/30 13:12:32;;;;;;;2.30;0.40;;;18.80;45.20;;;;;;5955143;24;20160;-83
2023/01/30 13:15:12;;;;;;;2.72;0.50;;;18.80;45.30;;;;;;5953069;24;20191;-83
2023/01/30 13:17:48;;;;;;;3.17;0.50;;;18.90;45.10;;;;;;5963220;24;20155;-81
2023/01/30 13:20:35;;;;;;;2.95;0.40;;;18.80;45.00;;;;;;5956782;24;20288;-83
2023/01/30 13:23:17;;;;;;;2.10;0.63;;;18.80;44.60;;;;;;5951970;24;20518;-83
2023/01/30 13:25:57;;;;;;;0.45;0.30;;;18.90;44.60;;;;;;5962709;24;20160;-82
2023/01/30 13:28:25;;;;;;;1.05;0.30;;;18.80;44.40;;;;;;5990923;23;20160;-81
2023/01/30 13:30:51;;;;;;;3.75;0.55;;;18.90;44.30;;;;;;6014806;23;20139;-82
2023/01/30 13:33:34;;;;;;;1.52;0.30;;;18.90;44.30;;;;;;6014544;23;20161;-82